Terminal Aerodrome Forecast
Issued by NWS Tampa Bay Area, FL

Home | Current Version | Previous Version | Text Only | Print | Product List | Glossary On
Versions: 1 2 3 4 5 6 7 8 9 10 11 12 13
595
FTUS42 KTBW 240537
TAFSRQ
TAF
KSRQ 240537Z 2406/2506 08005KT P6SM FEW020 FEW250
     FM241500 07008KT P6SM SCT020 SCT060 BKN250
     FM241900 07010KT P6SM VCTS SCT025CB BKN080
     FM250200 06008KT P6SM FEW035 SCT080 BKN250=

USA.gov is the U.S. government's official web portal to all federal, state and local government web resources and services.